sensor_id;sensor_type;location;lat;lon;timestamp;P1;durP1;ratioP1;P2;durP2;ratioP2
74658;SDS011;63186;51.204;6.536;2024-03-07T00:02:06;29.73;;;13.53;;
74658;SDS011;63186;51.204;6.536;2024-03-07T00:04:32;34.65;;;15.30;;
74658;SDS011;63186;51.204;6.536;2024-03-07T00:06:57;32.55;;;15.27;;
74658;SDS011;63186;51.204;6.536;2024-03-07T00:09:23;38.70;;;15.60;;
74658;SDS011;63186;51.204;6.536;2024-03-07T00:11:49;40.78;;;15.75;;
74658;SDS011;63186;51.204;6.536;2024-03-07T00:14:15;39.40;;;16.92;;
74658;SDS011;63186;51.204;6.536;2024-03-07T00:16:40;35.58;;;17.88;;
74658;SDS011;63186;51.204;6.536;2024-03-07T00:19:06;36.08;;;15.70;;
74658;SDS011;63186;51.204;6.536;2024-03-07T00:21:31;32.25;;;17.70;;
74658;SDS011;63186;51.204;6.536;2024-03-07T00:23:56;38.42;;;18.05;;
74658;SDS011;63186;51.204;6.536;2024-03-07T00:26:22;35.17;;;16.40;;
74658;SDS011;63186;51.204;6.536;2024-03-07T00:28:47;35.00;;;14.88;;
74658;SDS011;63186;51.204;6.536;2024-03-07T00:31:12;35.15;;;16.70;;
74658;SDS011;63186;51.204;6.536;2024-03-07T00:33:38;38.20;;;17.77;;
74658;SDS011;63186;51.204;6.536;2024-03-07T00:36:04;40.70;;;16.92;;
74658;SDS011;63186;51.204;6.536;2024-03-07T00:38:31;38.92;;;17.38;;
74658;SDS011;63186;51.204;6.536;2024-03-07T00:40:56;39.67;;;17.52;;
74658;SDS011;63186;51.204;6.536;2024-03-07T00:43:21;34.43;;;14.30;;
74658;SDS011;63186;51.204;6.536;2024-03-07T00:45:47;34.78;;;15.63;;
74658;SDS011;63186;51.204;6.536;2024-03-07T00:48:15;39.88;;;14.98;;
74658;SDS011;63186;51.204;6.536;2024-03-07T00:50:41;34.05;;;17.13;;
74658;SDS011;63186;51.204;6.536;2024-03-07T00:53:07;37.00;;;16.83;;
74658;SDS011;63186;51.204;6.536;2024-03-07T00:55:33;42.15;;;16.00;;
74658;SDS011;63186;51.204;6.536;2024-03-07T00:57:58;33.00;;;14.57;;
74658;SDS011;63186;51.204;6.536;2024-03-07T01:00:23;33.73;;;16.33;;
74658;SDS011;63186;51.204;6.536;2024-03-07T01:02:48;36.73;;;18.77;;
74658;SDS011;63186;51.204;6.536;2024-03-07T01:05:14;37.78;;;16.77;;
74658;SDS011;63186;51.204;6.536;2024-03-07T01:07:40;33.65;;;14.52;;
74658;SDS011;63186;51.204;6.536;2024-03-07T01:10:06;34.05;;;16.55;;
74658;SDS011;63186;51.204;6.536;2024-03-07T01:12:34;35.63;;;15.27;;
74658;SDS011;63186;51.204;6.536;2024-03-07T01:14:59;34.33;;;15.23;;
74658;SDS011;63186;51.204;6.536;2024-03-07T01:17:25;34.83;;;15.57;;
74658;SDS011;63186;51.204;6.536;2024-03-07T01:19:51;41.08;;;16.75;;
74658;SDS011;63186;51.204;6.536;2024-03-07T01:22:16;29.13;;;15.95;;
74658;SDS011;63186;51.204;6.536;2024-03-07T01:24:42;43.57;;;16.43;;
74658;SDS011;63186;51.204;6.536;2024-03-07T01:27:08;35.55;;;15.63;;
74658;SDS011;63186;51.204;6.536;2024-03-07T01:29:33;33.08;;;16.30;;
74658;SDS011;63186;51.204;6.536;2024-03-07T01:31:59;32.35;;;16.02;;
74658;SDS011;63186;51.204;6.536;2024-03-07T01:34:25;36.58;;;17.33;;
74658;SDS011;63186;51.204;6.536;2024-03-07T01:36:50;37.47;;;17.07;;
74658;SDS011;63186;51.204;6.536;2024-03-07T01:39:15;41.67;;;15.25;;
74658;SDS011;63186;51.204;6.536;2024-03-07T01:41:41;35.35;;;16.38;;
74658;SDS011;63186;51.204;6.536;2024-03-07T01:44:06;38.23;;;16.10;;
74658;SDS011;63186;51.204;6.536;2024-03-07T01:46:32;35.78;;;16.58;;
74658;SDS011;63186;51.204;6.536;2024-03-07T01:48:58;35.88;;;16.55;;
74658;SDS011;63186;51.204;6.536;2024-03-07T01:51:24;34.03;;;15.40;;
74658;SDS011;63186;51.204;6.536;2024-03-07T01:53:50;33.85;;;15.68;;
74658;SDS011;63186;51.204;6.536;2024-03-07T01:56:17;34.13;;;14.73;;
74658;SDS011;63186;51.204;6.536;2024-03-07T01:58:45;37.33;;;16.73;;
74658;SDS011;63186;51.204;6.536;2024-03-07T02:01:14;29.65;;;14.18;;
74658;SDS011;63186;51.204;6.536;2024-03-07T02:03:40;34.17;;;16.63;;
74658;SDS011;63186;51.204;6.536;2024-03-07T02:06:07;33.97;;;16.15;;
74658;SDS011;63186;51.204;6.536;2024-03-07T02:08:32;33.35;;;15.23;;
74658;SDS011;63186;51.204;6.536;2024-03-07T02:10:58;34.27;;;15.13;;
74658;SDS011;63186;51.204;6.536;2024-03-07T02:13:23;39.00;;;16.10;;
74658;SDS011;63186;51.204;6.536;2024-03-07T02:15:49;35.95;;;15.68;;
74658;SDS011;63186;51.204;6.536;2024-03-07T02:18:14;36.35;;;15.48;;
74658;SDS011;63186;51.204;6.536;2024-03-07T02:20:46;42.75;;;17.98;;
74658;SDS011;63186;51.204;6.536;2024-03-07T02:23:11;33.85;;;19.13;;
74658;SDS011;63186;51.204;6.536;2024-03-07T02:25:37;33.35;;;14.45;;
74658;SDS011;63186;51.204;6.536;2024-03-07T02:28:06;32.75;;;14.20;;
74658;SDS011;63186;51.204;6.536;2024-03-07T02:30:32;43.97;;;13.95;;
74658;SDS011;63186;51.204;6.536;2024-03-07T02:33:00;33.67;;;14.02;;
74658;SDS011;63186;51.204;6.536;2024-03-07T02:35:32;34.10;;;13.10;;
74658;SDS011;63186;51.204;6.536;2024-03-07T02:38:00;35.53;;;15.95;;
74658;SDS011;63186;51.204;6.536;2024-03-07T02:40:25;32.53;;;15.10;;
74658;SDS011;63186;51.204;6.536;2024-03-07T02:42:50;32.10;;;16.37;;
74658;SDS011;63186;51.204;6.536;2024-03-07T02:45:16;32.78;;;12.27;;
74658;SDS011;63186;51.204;6.536;2024-03-07T02:47:41;33.22;;;14.93;;
74658;SDS011;63186;51.204;6.536;2024-03-07T02:50:09;36.50;;;14.73;;
74658;SDS011;63186;51.204;6.536;2024-03-07T02:52:37;34.95;;;16.85;;
74658;SDS011;63186;51.204;6.536;2024-03-07T02:55:03;33.88;;;16.35;;
74658;SDS011;63186;51.204;6.536;2024-03-07T02:57:30;40.60;;;17.92;;
74658;SDS011;63186;51.204;6.536;2024-03-07T02:59:55;39.95;;;15.40;;
74658;SDS011;63186;51.204;6.536;2024-03-07T03:02:21;33.83;;;15.57;;
74658;SDS011;63186;51.204;6.536;2024-03-07T03:04:47;36.90;;;16.17;;
74658;SDS011;63186;51.204;6.536;2024-03-07T03:07:12;27.10;;;14.23;;
74658;SDS011;63186;51.204;6.536;2024-03-07T03:09:37;47.47;;;15.15;;
74658;SDS011;63186;51.204;6.536;2024-03-07T03:12:08;30.08;;;13.75;;
74658;SDS011;63186;51.204;6.536;2024-03-07T03:14:34;30.42;;;12.88;;
74658;SDS011;63186;51.204;6.536;2024-03-07T03:16:59;36.15;;;15.38;;
74658;SDS011;63186;51.204;6.536;2024-03-07T03:19:25;31.40;;;15.43;;
74658;SDS011;63186;51.204;6.536;2024-03-07T03:21:51;33.08;;;16.15;;
74658;SDS011;63186;51.204;6.536;2024-03-07T03:24:17;34.80;;;15.05;;
74658;SDS011;63186;51.204;6.536;2024-03-07T03:26:42;29.08;;;14.00;;
74658;SDS011;63186;51.204;6.536;2024-03-07T03:29:08;34.22;;;12.82;;
74658;SDS011;63186;51.204;6.536;2024-03-07T03:31:34;31.17;;;15.55;;
74658;SDS011;63186;51.204;6.536;2024-03-07T03:34:00;34.80;;;15.63;;
74658;SDS011;63186;51.204;6.536;2024-03-07T03:36:26;32.35;;;16.17;;
74658;SDS011;63186;51.204;6.536;2024-03-07T03:38:51;36.28;;;15.10;;
74658;SDS011;63186;51.204;6.536;2024-03-07T03:41:17;30.93;;;14.13;;
74658;SDS011;63186;51.204;6.536;2024-03-07T03:43:42;38.72;;;16.52;;
74658;SDS011;63186;51.204;6.536;2024-03-07T03:46:11;38.58;;;16.77;;
74658;SDS011;63186;51.204;6.536;2024-03-07T03:48:38;32.83;;;16.58;;
74658;SDS011;63186;51.204;6.536;2024-03-07T03:51:04;35.83;;;16.20;;
74658;SDS011;63186;51.204;6.536;2024-03-07T03:53:32;42.67;;;17.40;;
74658;SDS011;63186;51.204;6.536;2024-03-07T03:55:57;33.43;;;16.43;;
74658;SDS011;63186;51.204;6.536;2024-03-07T03:58:23;32.97;;;15.82;;
74658;SDS011;63186;51.204;6.536;2024-03-07T04:00:49;31.88;;;13.13;;
74658;SDS011;63186;51.204;6.536;2024-03-07T04:03:14;35.37;;;15.33;;
74658;SDS011;63186;51.204;6.536;2024-03-07T04:05:39;35.55;;;14.80;;
74658;SDS011;63186;51.204;6.536;2024-03-07T04:08:06;93.72;;;18.88;;
74658;SDS011;63186;51.204;6.536;2024-03-07T04:10:32;39.30;;;16.05;;
74658;SDS011;63186;51.204;6.536;2024-03-07T04:12:57;43.30;;;15.27;;
74658;SDS011;63186;51.204;6.536;2024-03-07T04:15:23;32.22;;;13.27;;
74658;SDS011;63186;51.204;6.536;2024-03-07T04:17:52;40.85;;;13.77;;
74658;SDS011;63186;51.204;6.536;2024-03-07T04:20:18;52.97;;;15.48;;
74658;SDS011;63186;51.204;6.536;2024-03-07T04:22:43;37.45;;;13.90;;
74658;SDS011;63186;51.204;6.536;2024-03-07T04:25:08;60.08;;;15.48;;
74658;SDS011;63186;51.204;6.536;2024-03-07T04:27:35;43.05;;;14.77;;
74658;SDS011;63186;51.204;6.536;2024-03-07T04:30:05;47.20;;;14.77;;
74658;SDS011;63186;51.204;6.536;2024-03-07T04:32:31;57.40;;;16.48;;
74658;SDS011;63186;51.204;6.536;2024-03-07T04:34:59;44.35;;;14.23;;
74658;SDS011;63186;51.204;6.536;2024-03-07T04:37:25;44.25;;;18.38;;
74658;SDS011;63186;51.204;6.536;2024-03-07T04:39:52;48.72;;;15.85;;
74658;SDS011;63186;51.204;6.536;2024-03-07T04:42:18;40.70;;;14.88;;
74658;SDS011;63186;51.204;6.536;2024-03-07T04:44:43;48.17;;;16.27;;
74658;SDS011;63186;51.204;6.536;2024-03-07T04:47:08;68.43;;;18.67;;
74658;SDS011;63186;51.204;6.536;2024-03-07T04:49:34;46.30;;;16.03;;
74658;SDS011;63186;51.204;6.536;2024-03-07T04:52:01;51.78;;;15.82;;
74658;SDS011;63186;51.204;6.536;2024-03-07T04:54:28;68.75;;;16.45;;
74658;SDS011;63186;51.204;6.536;2024-03-07T04:56:54;44.78;;;13.85;;
74658;SDS011;63186;51.204;6.536;2024-03-07T04:59:21;40.25;;;15.18;;
74658;SDS011;63186;51.204;6.536;2024-03-07T05:01:47;32.47;;;16.27;;
74658;SDS011;63186;51.204;6.536;2024-03-07T05:04:15;45.83;;;16.83;;
74658;SDS011;63186;51.204;6.536;2024-03-07T05:06:41;55.05;;;15.88;;
74658;SDS011;63186;51.204;6.536;2024-03-07T05:09:07;46.88;;;16.67;;
74658;SDS011;63186;51.204;6.536;2024-03-07T05:11:33;50.90;;;17.90;;
74658;SDS011;63186;51.204;6.536;2024-03-07T05:13:59;50.78;;;19.65;;
74658;SDS011;63186;51.204;6.536;2024-03-07T05:16:29;41.47;;;18.40;;
74658;SDS011;63186;51.204;6.536;2024-03-07T05:18:55;41.92;;;17.80;;
74658;SDS011;63186;51.204;6.536;2024-03-07T05:21:25;44.97;;;14.20;;
74658;SDS011;63186;51.204;6.536;2024-03-07T05:24:05;47.58;;;16.92;;
74658;SDS011;63186;51.204;6.536;2024-03-07T05:26:33;46.72;;;21.02;;
74658;SDS011;63186;51.204;6.536;2024-03-07T05:29:03;37.50;;;17.08;;
74658;SDS011;63186;51.204;6.536;2024-03-07T05:31:38;41.83;;;17.70;;
74658;SDS011;63186;51.204;6.536;2024-03-07T05:34:09;45.33;;;17.88;;
74658;SDS011;63186;51.204;6.536;2024-03-07T05:36:34;51.08;;;17.33;;
74658;SDS011;63186;51.204;6.536;2024-03-07T05:39:00;40.85;;;17.70;;
74658;SDS011;63186;51.204;6.536;2024-03-07T05:41:33;83.13;;;20.08;;
74658;SDS011;63186;51.204;6.536;2024-03-07T05:43:59;38.80;;;15.35;;
74658;SDS011;63186;51.204;6.536;2024-03-07T05:46:25;67.05;;;17.40;;
74658;SDS011;63186;51.204;6.536;2024-03-07T05:48:50;31.10;;;15.05;;
74658;SDS011;63186;51.204;6.536;2024-03-07T05:51:21;34.17;;;15.18;;
74658;SDS011;63186;51.204;6.536;2024-03-07T05:53:47;40.17;;;16.35;;
74658;SDS011;63186;51.204;6.536;2024-03-07T05:56:13;33.23;;;15.53;;
74658;SDS011;63186;51.204;6.536;2024-03-07T05:58:39;43.25;;;15.50;;
74658;SDS011;63186;51.204;6.536;2024-03-07T06:01:04;38.55;;;15.95;;
74658;SDS011;63186;51.204;6.536;2024-03-07T06:03:30;35.80;;;15.82;;
74658;SDS011;63186;51.204;6.536;2024-03-07T06:05:55;31.75;;;14.88;;
74658;SDS011;63186;51.204;6.536;2024-03-07T06:08:21;37.50;;;16.37;;
74658;SDS011;63186;51.204;6.536;2024-03-07T06:10:46;46.03;;;22.20;;
74658;SDS011;63186;51.204;6.536;2024-03-07T06:13:13;39.05;;;17.92;;
74658;SDS011;63186;51.204;6.536;2024-03-07T06:15:42;36.53;;;16.05;;
74658;SDS011;63186;51.204;6.536;2024-03-07T06:18:08;37.05;;;17.50;;
74658;SDS011;63186;51.204;6.536;2024-03-07T06:20:35;35.03;;;16.08;;
74658;SDS011;63186;51.204;6.536;2024-03-07T06:23:01;35.08;;;16.15;;
74658;SDS011;63186;51.204;6.536;2024-03-07T06:25:33;40.22;;;17.38;;
74658;SDS011;63186;51.204;6.536;2024-03-07T06:28:05;39.95;;;16.83;;
74658;SDS011;63186;51.204;6.536;2024-03-07T06:30:37;36.15;;;16.75;;
74658;SDS011;63186;51.204;6.536;2024-03-07T06:33:04;38.20;;;16.35;;
74658;SDS011;63186;51.204;6.536;2024-03-07T06:35:30;40.78;;;17.15;;
74658;SDS011;63186;51.204;6.536;2024-03-07T06:37:56;36.15;;;17.23;;
74658;SDS011;63186;51.204;6.536;2024-03-07T06:40:21;38.20;;;16.92;;
74658;SDS011;63186;51.204;6.536;2024-03-07T06:42:47;38.45;;;16.23;;
74658;SDS011;63186;51.204;6.536;2024-03-07T06:45:16;40.88;;;20.25;;
74658;SDS011;63186;51.204;6.536;2024-03-07T06:47:46;47.97;;;20.60;;
74658;SDS011;63186;51.204;6.536;2024-03-07T06:50:12;43.15;;;19.30;;
74658;SDS011;63186;51.204;6.536;2024-03-07T06:52:42;33.97;;;16.38;;
74658;SDS011;63186;51.204;6.536;2024-03-07T06:55:07;42.55;;;20.17;;
74658;SDS011;63186;51.204;6.536;2024-03-07T06:57:33;40.85;;;20.30;;
74658;SDS011;63186;51.204;6.536;2024-03-07T07:00:01;45.05;;;21.98;;
74658;SDS011;63186;51.204;6.536;2024-03-07T07:02:37;46.78;;;18.60;;
74658;SDS011;63186;51.204;6.536;2024-03-07T07:05:03;37.88;;;16.67;;
74658;SDS011;63186;51.204;6.536;2024-03-07T07:07:32;40.67;;;19.98;;
74658;SDS011;63186;51.204;6.536;2024-03-07T07:10:00;44.10;;;18.30;;
74658;SDS011;63186;51.204;6.536;2024-03-07T07:12:26;37.78;;;15.60;;
74658;SDS011;63186;51.204;6.536;2024-03-07T07:14:51;43.78;;;21.10;;
74658;SDS011;63186;51.204;6.536;2024-03-07T07:17:17;33.88;;;17.52;;
74658;SDS011;63186;51.204;6.536;2024-03-07T07:19:42;38.55;;;17.55;;
74658;SDS011;63186;51.204;6.536;2024-03-07T07:22:07;40.73;;;19.80;;
74658;SDS011;63186;51.204;6.536;2024-03-07T07:24:34;38.97;;;18.67;;
74658;SDS011;63186;51.204;6.536;2024-03-07T07:29:28;39.40;;;18.30;;
74658;SDS011;63186;51.204;6.536;2024-03-07T07:31:53;37.47;;;17.97;;
74658;SDS011;63186;51.204;6.536;2024-03-07T07:34:18;40.30;;;20.83;;
74658;SDS011;63186;51.204;6.536;2024-03-07T07:36:44;38.83;;;17.95;;
74658;SDS011;63186;51.204;6.536;2024-03-07T07:39:09;38.23;;;17.33;;
74658;SDS011;63186;51.204;6.536;2024-03-07T07:41:41;36.78;;;17.92;;
74658;SDS011;63186;51.204;6.536;2024-03-07T07:44:08;34.83;;;16.23;;
74658;SDS011;63186;51.204;6.536;2024-03-07T07:46:33;35.92;;;16.50;;
74658;SDS011;63186;51.204;6.536;2024-03-07T07:48:59;34.35;;;16.80;;
74658;SDS011;63186;51.204;6.536;2024-03-07T07:51:26;41.70;;;19.98;;
74658;SDS011;63186;51.204;6.536;2024-03-07T07:53:51;38.90;;;16.63;;
74658;SDS011;63186;51.204;6.536;2024-03-07T07:56:19;35.00;;;18.73;;
74658;SDS011;63186;51.204;6.536;2024-03-07T07:58:44;32.90;;;16.08;;
74658;SDS011;63186;51.204;6.536;2024-03-07T08:01:10;34.22;;;17.35;;
74658;SDS011;63186;51.204;6.536;2024-03-07T08:03:35;36.78;;;19.10;;
74658;SDS011;63186;51.204;6.536;2024-03-07T08:06:01;35.50;;;16.85;;
74658;SDS011;63186;51.204;6.536;2024-03-07T08:08:27;37.00;;;17.92;;
74658;SDS011;63186;51.204;6.536;2024-03-07T08:10:53;32.67;;;16.60;;
74658;SDS011;63186;51.204;6.536;2024-03-07T08:13:18;30.38;;;14.68;;
74658;SDS011;63186;51.204;6.536;2024-03-07T08:15:43;32.17;;;16.98;;
74658;SDS011;63186;51.204;6.536;2024-03-07T08:18:09;38.90;;;17.73;;
74658;SDS011;63186;51.204;6.536;2024-03-07T08:20:34;34.78;;;17.95;;
74658;SDS011;63186;51.204;6.536;2024-03-07T08:23:00;33.85;;;16.85;;
74658;SDS011;63186;51.204;6.536;2024-03-07T08:25:26;36.03;;;16.95;;
74658;SDS011;63186;51.204;6.536;2024-03-07T08:27:54;36.17;;;18.92;;
74658;SDS011;63186;51.204;6.536;2024-03-07T08:30:21;30.35;;;15.48;;
74658;SDS011;63186;51.204;6.536;2024-03-07T08:32:54;29.75;;;15.15;;
74658;SDS011;63186;51.204;6.536;2024-03-07T08:35:21;31.05;;;14.60;;
74658;SDS011;63186;51.204;6.536;2024-03-07T08:37:47;29.80;;;14.38;;
74658;SDS011;63186;51.204;6.536;2024-03-07T08:40:23;30.00;;;14.60;;
74658;SDS011;63186;51.204;6.536;2024-03-07T08:42:56;32.53;;;14.73;;
74658;SDS011;63186;51.204;6.536;2024-03-07T08:45:22;27.77;;;14.40;;
74658;SDS011;63186;51.204;6.536;2024-03-07T08:47:48;24.45;;;13.98;;
74658;SDS011;63186;51.204;6.536;2024-03-07T08:50:15;27.80;;;11.93;;
74658;SDS011;63186;51.204;6.536;2024-03-07T08:52:43;25.00;;;13.68;;
74658;SDS011;63186;51.204;6.536;2024-03-07T08:55:13;20.70;;;11.02;;
74658;SDS011;63186;51.204;6.536;2024-03-07T08:57:40;23.88;;;11.25;;
74658;SDS011;63186;51.204;6.536;2024-03-07T09:00:07;20.98;;;10.60;;
74658;SDS011;63186;51.204;6.536;2024-03-07T09:02:40;22.17;;;11.68;;
74658;SDS011;63186;51.204;6.536;2024-03-07T09:05:07;20.33;;;10.73;;
74658;SDS011;63186;51.204;6.536;2024-03-07T09:07:35;18.33;;;10.23;;
74658;SDS011;63186;51.204;6.536;2024-03-07T09:10:00;20.38;;;9.75;;
74658;SDS011;63186;51.204;6.536;2024-03-07T09:12:26;20.52;;;10.50;;
74658;SDS011;63186;51.204;6.536;2024-03-07T09:14:51;19.13;;;10.10;;
74658;SDS011;63186;51.204;6.536;2024-03-07T09:17:17;19.42;;;9.80;;
74658;SDS011;63186;51.204;6.536;2024-03-07T09:19:42;19.48;;;10.02;;
74658;SDS011;63186;51.204;6.536;2024-03-07T09:22:08;22.57;;;10.63;;
74658;SDS011;63186;51.204;6.536;2024-03-07T09:24:33;16.60;;;8.80;;
74658;SDS011;63186;51.204;6.536;2024-03-07T09:26:59;19.63;;;9.52;;
74658;SDS011;63186;51.204;6.536;2024-03-07T09:29:25;17.65;;;9.40;;
74658;SDS011;63186;51.204;6.536;2024-03-07T09:31:51;18.60;;;8.55;;
74658;SDS011;63186;51.204;6.536;2024-03-07T09:34:17;18.38;;;9.60;;
74658;SDS011;63186;51.204;6.536;2024-03-07T09:36:43;19.98;;;10.27;;
74658;SDS011;63186;51.204;6.536;2024-03-07T09:39:09;19.05;;;8.55;;
74658;SDS011;63186;51.204;6.536;2024-03-07T09:41:34;20.80;;;9.13;;
74658;SDS011;63186;51.204;6.536;2024-03-07T09:44:00;17.48;;;8.57;;
74658;SDS011;63186;51.204;6.536;2024-03-07T09:46:26;18.23;;;10.65;;
74658;SDS011;63186;51.204;6.536;2024-03-07T09:48:53;19.35;;;9.25;;
74658;SDS011;63186;51.204;6.536;2024-03-07T09:51:20;16.15;;;7.85;;
74658;SDS011;63186;51.204;6.536;2024-03-07T09:53:49;20.95;;;9.15;;
74658;SDS011;63186;51.204;6.536;2024-03-07T09:56:22;19.63;;;10.32;;
74658;SDS011;63186;51.204;6.536;2024-03-07T09:58:51;19.20;;;9.07;;
74658;SDS011;63186;51.204;6.536;2024-03-07T10:01:20;20.48;;;8.82;;
74658;SDS011;63186;51.204;6.536;2024-03-07T10:03:46;18.00;;;9.00;;
74658;SDS011;63186;51.204;6.536;2024-03-07T10:06:13;22.17;;;9.05;;
74658;SDS011;63186;51.204;6.536;2024-03-07T10:08:39;16.65;;;8.73;;
74658;SDS011;63186;51.204;6.536;2024-03-07T10:11:07;18.15;;;9.18;;
74658;SDS011;63186;51.204;6.536;2024-03-07T10:13:34;17.45;;;8.25;;
74658;SDS011;63186;51.204;6.536;2024-03-07T10:16:00;17.67;;;8.38;;
74658;SDS011;63186;51.204;6.536;2024-03-07T10:18:26;17.88;;;9.15;;
74658;SDS011;63186;51.204;6.536;2024-03-07T10:20:55;19.90;;;9.07;;
74658;SDS011;63186;51.204;6.536;2024-03-07T10:23:21;16.88;;;8.75;;
74658;SDS011;63186;51.204;6.536;2024-03-07T10:25:50;18.38;;;9.43;;
74658;SDS011;63186;51.204;6.536;2024-03-07T10:28:16;16.40;;;8.68;;
74658;SDS011;63186;51.204;6.536;2024-03-07T10:30:42;20.65;;;9.45;;
74658;SDS011;63186;51.204;6.536;2024-03-07T10:33:11;18.17;;;8.05;;
74658;SDS011;63186;51.204;6.536;2024-03-07T10:35:37;17.10;;;8.80;;
74658;SDS011;63186;51.204;6.536;2024-03-07T10:38:03;18.08;;;9.80;;
74658;SDS011;63186;51.204;6.536;2024-03-07T10:40:31;18.25;;;9.85;;
74658;SDS011;63186;51.204;6.536;2024-03-07T10:42:57;17.23;;;9.50;;
74658;SDS011;63186;51.204;6.536;2024-03-07T10:45:28;17.83;;;8.32;;
74658;SDS011;63186;51.204;6.536;2024-03-07T10:47:58;17.27;;;8.60;;
74658;SDS011;63186;51.204;6.536;2024-03-07T10:55:49;17.52;;;9.48;;
74658;SDS011;63186;51.204;6.536;2024-03-07T10:58:42;18.50;;;9.18;;
74658;SDS011;63186;51.204;6.536;2024-03-07T11:01:35;18.30;;;8.73;;
74658;SDS011;63186;51.204;6.536;2024-03-07T11:04:09;21.60;;;10.07;;
74658;SDS011;63186;51.204;6.536;2024-03-07T11:06:38;21.42;;;9.57;;
74658;SDS011;63186;51.204;6.536;2024-03-07T11:09:03;18.08;;;9.23;;
74658;SDS011;63186;51.204;6.536;2024-03-07T11:11:36;18.55;;;8.35;;
74658;SDS011;63186;51.204;6.536;2024-03-07T11:14:09;17.63;;;8.32;;
74658;SDS011;63186;51.204;6.536;2024-03-07T11:16:38;18.15;;;9.65;;
74658;SDS011;63186;51.204;6.536;2024-03-07T11:21:43;19.60;;;7.97;;
74658;SDS011;63186;51.204;6.536;2024-03-07T11:24:08;17.85;;;9.73;;
74658;SDS011;63186;51.204;6.536;2024-03-07T11:26:34;18.70;;;9.98;;
74658;SDS011;63186;51.204;6.536;2024-03-07T11:28:59;16.85;;;7.95;;
74658;SDS011;63186;51.204;6.536;2024-03-07T11:31:26;13.55;;;7.55;;
74658;SDS011;63186;51.204;6.536;2024-03-07T11:36:46;19.77;;;9.65;;
74658;SDS011;63186;51.204;6.536;2024-03-07T11:42:04;22.35;;;9.77;;
74658;SDS011;63186;51.204;6.536;2024-03-07T11:44:31;17.10;;;8.95;;
74658;SDS011;63186;51.204;6.536;2024-03-07T11:46:59;16.25;;;8.50;;
74658;SDS011;63186;51.204;6.536;2024-03-07T11:49:33;17.88;;;9.73;;
74658;SDS011;63186;51.204;6.536;2024-03-07T11:52:01;17.60;;;9.52;;
74658;SDS011;63186;51.204;6.536;2024-03-07T11:54:29;17.50;;;9.60;;
74658;SDS011;63186;51.204;6.536;2024-03-07T11:56:56;18.38;;;9.07;;
74658;SDS011;63186;51.204;6.536;2024-03-07T11:59:22;16.02;;;9.23;;
74658;SDS011;63186;51.204;6.536;2024-03-07T12:01:51;21.30;;;9.40;;
74658;SDS011;63186;51.204;6.536;2024-03-07T12:04:16;19.40;;;8.65;;
74658;SDS011;63186;51.204;6.536;2024-03-07T12:06:49;18.70;;;9.17;;
74658;SDS011;63186;51.204;6.536;2024-03-07T12:09:16;17.30;;;8.40;;
74658;SDS011;63186;51.204;6.536;2024-03-07T12:11:49;20.10;;;8.90;;
74658;SDS011;63186;51.204;6.536;2024-03-07T12:14:17;17.45;;;8.10;;
74658;SDS011;63186;51.204;6.536;2024-03-07T12:16:44;16.23;;;8.10;;
74658;SDS011;63186;51.204;6.536;2024-03-07T12:19:09;17.48;;;9.63;;
74658;SDS011;63186;51.204;6.536;2024-03-07T12:21:36;15.05;;;7.00;;
74658;SDS011;63186;51.204;6.536;2024-03-07T12:24:10;16.92;;;8.52;;
74658;SDS011;63186;51.204;6.536;2024-03-07T12:26:38;16.92;;;8.85;;
74658;SDS011;63186;51.204;6.536;2024-03-07T12:29:10;19.20;;;9.60;;
74658;SDS011;63186;51.204;6.536;2024-03-07T12:31:40;15.93;;;8.40;;
74658;SDS011;63186;51.204;6.536;2024-03-07T12:34:06;15.52;;;7.97;;
74658;SDS011;63186;51.204;6.536;2024-03-07T12:36:35;16.90;;;7.97;;
74658;SDS011;63186;51.204;6.536;2024-03-07T12:39:10;16.60;;;8.45;;
74658;SDS011;63186;51.204;6.536;2024-03-07T12:41:50;16.30;;;7.40;;
74658;SDS011;63186;51.204;6.536;2024-03-07T12:44:19;20.45;;;8.75;;
74658;SDS011;63186;51.204;6.536;2024-03-07T12:46:48;15.15;;;7.78;;
74658;SDS011;63186;51.204;6.536;2024-03-07T12:49:18;18.42;;;7.40;;
74658;SDS011;63186;51.204;6.536;2024-03-07T12:51:44;17.85;;;8.50;;
74658;SDS011;63186;51.204;6.536;2024-03-07T12:54:09;18.35;;;8.27;;
74658;SDS011;63186;51.204;6.536;2024-03-07T12:56:35;15.13;;;7.43;;
74658;SDS011;63186;51.204;6.536;2024-03-07T12:59:02;16.10;;;7.43;;
74658;SDS011;63186;51.204;6.536;2024-03-07T13:01:29;18.67;;;8.70;;
74658;SDS011;63186;51.204;6.536;2024-03-07T13:03:55;18.42;;;8.30;;
74658;SDS011;63186;51.204;6.536;2024-03-07T13:06:21;15.80;;;7.47;;
74658;SDS011;63186;51.204;6.536;2024-03-07T13:08:50;13.95;;;7.05;;
74658;SDS011;63186;51.204;6.536;2024-03-07T13:11:15;15.88;;;7.72;;
74658;SDS011;63186;51.204;6.536;2024-03-07T13:13:41;15.57;;;8.00;;
74658;SDS011;63186;51.204;6.536;2024-03-07T13:16:07;14.52;;;8.23;;
74658;SDS011;63186;51.204;6.536;2024-03-07T13:18:34;18.50;;;7.72;;
74658;SDS011;63186;51.204;6.536;2024-03-07T13:20:59;15.30;;;7.83;;
74658;SDS011;63186;51.204;6.536;2024-03-07T13:23:28;15.98;;;8.52;;
74658;SDS011;63186;51.204;6.536;2024-03-07T13:25:53;17.90;;;7.63;;
74658;SDS011;63186;51.204;6.536;2024-03-07T13:28:19;15.10;;;7.38;;
74658;SDS011;63186;51.204;6.536;2024-03-07T13:30:49;17.98;;;7.63;;
74658;SDS011;63186;51.204;6.536;2024-03-07T13:33:15;19.75;;;9.27;;
74658;SDS011;63186;51.204;6.536;2024-03-07T13:35:41;19.13;;;8.73;;
74658;SDS011;63186;51.204;6.536;2024-03-07T13:38:06;17.23;;;8.50;;
74658;SDS011;63186;51.204;6.536;2024-03-07T13:40:33;16.27;;;8.80;;
74658;SDS011;63186;51.204;6.536;2024-03-07T13:43:03;18.63;;;8.90;;
74658;SDS011;63186;51.204;6.536;2024-03-07T13:45:30;16.50;;;8.32;;
74658;SDS011;63186;51.204;6.536;2024-03-07T13:47:57;15.85;;;8.20;;
74658;SDS011;63186;51.204;6.536;2024-03-07T13:50:25;16.70;;;8.95;;
74658;SDS011;63186;51.204;6.536;2024-03-07T13:52:53;20.38;;;9.20;;
74658;SDS011;63186;51.204;6.536;2024-03-07T14:10:13;19.50;;;9.63;;
74658;SDS011;63186;51.204;6.536;2024-03-07T14:16:19;18.13;;;8.73;;
74658;SDS011;63186;51.204;6.536;2024-03-07T14:30:54;19.27;;;10.52;;
74658;SDS011;63186;51.204;6.536;2024-03-07T14:33:28;22.40;;;10.32;;
74658;SDS011;63186;51.204;6.536;2024-03-07T14:36:02;21.23;;;9.88;;
74658;SDS011;63186;51.204;6.536;2024-03-07T14:41:05;16.45;;;8.63;;
74658;SDS011;63186;51.204;6.536;2024-03-07T14:43:34;17.25;;;9.23;;
74658;SDS011;63186;51.204;6.536;2024-03-07T14:45:59;17.15;;;10.00;;
74658;SDS011;63186;51.204;6.536;2024-03-07T14:48:25;21.25;;;9.07;;
74658;SDS011;63186;51.204;6.536;2024-03-07T14:50:50;21.50;;;8.63;;
74658;SDS011;63186;51.204;6.536;2024-03-07T14:53:16;18.30;;;10.07;;
74658;SDS011;63186;51.204;6.536;2024-03-07T14:55:42;17.55;;;8.82;;
74658;SDS011;63186;51.204;6.536;2024-03-07T14:58:08;18.83;;;9.80;;
74658;SDS011;63186;51.204;6.536;2024-03-07T15:00:36;17.63;;;9.48;;
74658;SDS011;63186;51.204;6.536;2024-03-07T15:03:06;16.50;;;8.05;;
74658;SDS011;63186;51.204;6.536;2024-03-07T15:05:34;14.60;;;9.23;;
74658;SDS011;63186;51.204;6.536;2024-03-07T15:08:00;14.50;;;7.40;;
74658;SDS011;63186;51.204;6.536;2024-03-07T15:10:27;15.52;;;8.77;;
74658;SDS011;63186;51.204;6.536;2024-03-07T15:12:56;13.70;;;7.28;;
74658;SDS011;63186;51.204;6.536;2024-03-07T15:15:22;13.30;;;6.97;;